Time;durP1;ratioP1;P1;durP2;ratioP2;P2;SDS_P1;SDS_P2;PMS_P1;PMS_P2;Temp;Humidity;BMP_temperature;BMP_pressure;BME280_temperature;BME280_humidity;BME280_pressure;Samples;Min_cycle;Max_cycle;Signal;HPM_P1;HPM_P2
2022/08/09 00:02:19;;;;;;;;;6.67;6.67;;;;;-145.45;100.00;57426.63;5071753;27;46553;-81
2022/08/09 00:04:45;;;;;;;;;6.67;6.67;;;;;-145.45;100.00;57426.63;5082895;27;45354;-81
2022/08/09 00:07:11;;;;;;;;;7.67;7.00;;;;;-145.45;100.00;57426.63;5088069;27;45211;-81
2022/08/09 00:09:36;;;;;;;;;7.00;7.00;;;;;-145.45;100.00;57426.63;5087451;27;45691;-81
2022/08/09 00:12:02;;;;;;;;;7.33;7.00;;;;;-145.45;100.00;57426.63;5094530;27;46099;-81
2022/08/09 00:14:27;;;;;;;;;9.67;7.33;;;;;-145.45;100.00;57426.63;5083537;27;45411;-81
2022/08/09 00:16:52;;;;;;;;;6.00;5.67;;;;;-145.45;100.00;57426.63;5083167;27;45269;-82
2022/08/09 00:19:18;;;;;;;;;8.67;7.00;;;;;-145.45;100.00;57426.63;5086117;27;45472;-81
2022/08/09 00:21:43;;;;;;;;;7.33;6.33;;;;;-145.45;100.00;57426.63;5082804;27;45340;-81
2022/08/09 00:24:08;;;;;;;;;6.33;5.67;;;;;-145.45;100.00;57426.63;5081125;27;44871;-82
2022/08/09 00:26:34;;;;;;;;;8.00;6.33;;;;;-145.45;100.00;57426.63;5083369;27;45354;-81
2022/08/09 00:29:02;;;;;;;;;7.67;7.67;;;;;-145.45;100.00;57426.63;5086429;27;45360;-81
2022/08/09 00:31:29;;;;;;;;;8.00;6.00;;;;;-145.45;100.00;57426.63;5084489;27;45076;-81
2022/08/09 00:33:55;;;;;;;;;9.00;5.67;;;;;-145.45;100.00;57426.63;5090343;27;45324;-80
2022/08/09 00:36:22;;;;;;;;;8.00;7.00;;;;;-145.45;100.00;57426.63;5085315;27;45329;-81
2022/08/09 00:38:48;;;;;;;;;8.67;6.67;;;;;-145.45;100.00;57426.63;5084051;27;45502;-81
2022/08/09 00:41:14;;;;;;;;;6.67;6.67;;;;;-145.45;100.00;57426.63;5086098;27;45077;-80
2022/08/09 00:43:41;;;;;;;;;5.33;5.33;;;;;-145.45;100.00;57426.63;5071570;28;45259;-81
2022/08/09 00:46:08;;;;;;;;;6.00;5.67;;;;;-145.45;100.00;57426.63;5082833;27;45324;-81
2022/08/09 00:48:34;;;;;;;;;6.00;4.67;;;;;-145.45;100.00;57426.63;5082450;27;45174;-80
2022/08/09 00:51:02;;;;;;;;;8.00;5.00;;;;;-145.45;100.00;57426.63;5090417;27;46251;-80
2022/08/09 00:53:28;;;;;;;;;7.00;7.00;;;;;-145.45;100.00;57426.63;5083796;27;45377;-80
2022/08/09 00:55:54;;;;;;;;;6.67;6.67;;;;;-145.45;100.00;57426.63;5080994;27;45265;-80
2022/08/09 00:58:19;;;;;;;;;5.33;5.33;;;;;-145.45;100.00;57426.63;5083514;27;45355;-79
2022/08/09 01:00:49;;;;;;;;;6.33;5.33;;;;;-145.45;100.00;57426.63;5099320;27;45416;-80
2022/08/09 01:03:40;;;;;;;;;5.67;5.67;;;;;-145.45;100.00;57426.63;5094466;27;45366;-80
2022/08/09 01:06:10;;;;;;;;;4.67;4.67;;;;;-145.45;100.00;57426.63;5081430;27;45355;-80
2022/08/09 01:08:44;;;;;;;;;7.33;6.00;;;;;-145.45;100.00;57426.63;5088104;27;45871;-81
2022/08/09 01:11:19;;;;;;;;;7.50;6.50;;;;;-145.45;100.00;57426.63;5081083;27;45478;-81
2022/08/09 01:13:51;;;;;;;;;6.00;6.00;;;;;-145.45;100.00;57426.63;5083199;27;45579;-80
2022/08/09 01:16:21;;;;;;;;;4.67;4.67;;;;;-145.45;100.00;57426.63;5091190;27;45253;-80
2022/08/09 01:18:48;;;;;;;;;5.33;4.67;;;;;-145.45;100.00;57426.63;5088430;27;45435;-80
2022/08/09 01:21:29;;;;;;;;;6.00;6.00;;;;;-145.45;100.00;57426.63;5080529;27;46190;-81
2022/08/09 01:24:30;;;;;;;;;5.00;5.00;;;;;-145.45;100.00;57426.63;5073514;28;45372;-80
2022/08/09 01:27:05;;;;;;;;;6.00;6.00;;;;;-145.45;100.00;57426.63;5083718;27;45340;-79
2022/08/09 01:29:41;;;;;;;;;2.00;2.00;;;;;-145.45;100.00;57426.63;5082112;27;45260;-79
2022/08/09 01:32:09;;;;;;;;;7.00;7.00;;;;;-145.45;100.00;57426.63;5096650;27;47290;-80
2022/08/09 01:34:37;;;;;;;;;5.00;5.00;;;;;-145.45;100.00;57426.63;5090759;27;45530;-79
2022/08/09 01:37:06;;;;;;;;;4.67;4.67;;;;;-145.45;100.00;57426.63;5092537;27;45454;-78
2022/08/09 01:39:34;;;;;;;;;7.67;6.00;;;;;-145.45;100.00;57426.63;5081890;27;45217;-80
2022/08/09 01:42:02;;;;;;;;;10.67;5.33;;;;;-145.45;100.00;57426.63;5081458;27;45259;-79
2022/08/09 01:44:29;;;;;;;;;6.33;5.00;;;;;-145.45;100.00;57426.63;5080222;27;45380;-79
2022/08/09 01:46:56;;;;;;;;;7.00;5.67;;;;;-145.45;100.00;57426.63;5084034;27;45277;-79
2022/08/09 01:49:23;;;;;;;;;6.00;6.00;;;;;-145.45;100.00;57426.63;5079901;27;45694;-80
2022/08/09 01:51:53;;;;;;;;;7.00;6.00;;;;;-145.45;100.00;57426.63;5089285;27;46161;-80
2022/08/09 01:54:21;;;;;;;;;6.33;6.33;;;;;-145.45;100.00;57426.63;5084946;27;45320;-80
2022/08/09 01:56:49;;;;;;;;;6.00;6.00;;;;;-145.45;100.00;57426.63;5082744;27;45232;-80
2022/08/09 01:59:17;;;;;;;;;5.00;5.00;;;;;-145.45;100.00;57426.63;5079592;27;45182;-81
2022/08/09 02:01:46;;;;;;;;;4.67;4.67;;;;;-145.45;100.00;57426.63;5081909;27;46572;-80
2022/08/09 02:04:14;;;;;;;;;6.00;6.00;;;;;-145.45;100.00;57426.63;5083130;27;44668;-81
2022/08/09 02:09:30;;;;;;;;;6.33;6.33;;;;;-145.45;100.00;57426.63;5095654;27;45379;-82
2022/08/09 02:11:57;;;;;;;;;6.33;6.33;;;;;-145.45;100.00;57426.63;5092289;27;46198;-81
2022/08/09 02:14:26;;;;;;;;;5.33;5.33;;;;;-145.45;100.00;57426.63;5084167;27;45486;-81
2022/08/09 02:16:53;;;;;;;;;5.67;5.67;;;;;-145.45;100.00;57426.63;5096282;27;45339;-81
2022/08/09 02:19:18;;;;;;;;;6.33;5.33;;;;;-145.45;100.00;57426.63;5084904;27;45562;-82
2022/08/09 02:21:51;;;;;;;;;6.33;5.67;;;;;-145.45;100.00;57426.63;5082817;27;45392;-81
2022/08/09 02:24:21;;;;;;;;;8.33;7.00;;;;;-145.45;100.00;57426.63;5091312;27;45339;-81
2022/08/09 02:26:50;;;;;;;;;9.00;7.33;;;;;-145.45;100.00;57426.63;5078258;27;45505;-81
2022/08/09 02:29:22;;;;;;;;;5.33;5.33;;;;;-145.45;100.00;57426.63;5078632;27;44812;-80
2022/08/09 02:31:49;;;;;;;;;6.00;6.00;;;;;-145.45;100.00;57426.63;5076058;27;47272;-80
2022/08/09 02:34:20;;;;;;;;;7.00;6.00;;;;;-145.45;100.00;57426.63;5080187;27;45284;-81
2022/08/09 02:36:52;;;;;;;;;6.67;6.67;;;;;-145.45;100.00;57426.63;5082442;27;45312;-81
2022/08/09 02:39:21;;;;;;;;;7.67;7.00;;;;;-145.45;100.00;57426.63;5079030;27;45337;-80
2022/08/09 02:41:55;;;;;;;;;6.00;6.00;;;;;-145.45;100.00;57426.63;5085547;27;46391;-81
2022/08/09 02:44:30;;;;;;;;;5.67;5.67;;;;;-145.45;100.00;57426.63;5084296;27;45217;-81
2022/08/09 02:47:01;;;;;;;;;5.67;5.67;;;;;-145.45;100.00;57426.63;5079536;27;45534;-81
2022/08/09 02:49:26;;;;;;;;;10.33;6.67;;;;;-145.45;100.00;57426.63;5081263;27;45409;-81
2022/08/09 02:51:56;;;;;;;;;5.00;5.00;;;;;-145.45;100.00;57426.63;5071428;27;45400;-80
2022/08/09 02:54:23;;;;;;;;;5.67;5.67;;;;;-145.45;100.00;57426.63;5072171;28;45665;-81
2022/08/09 02:56:50;;;;;;;;;6.67;6.33;;;;;-145.45;100.00;57426.63;5081953;27;45295;-80
2022/08/09 02:59:19;;;;;;;;;6.67;5.00;;;;;-145.45;100.00;57426.63;5078905;28;45271;-80
2022/08/09 03:01:46;;;;;;;;;6.67;6.67;;;;;-145.45;100.00;57426.63;5081419;27;45323;-80
2022/08/09 03:04:13;;;;;;;;;5.00;5.00;;;;;-145.45;100.00;57426.63;5071796;27;45245;-80
2022/08/09 03:06:40;;;;;;;;;4.33;4.33;;;;;-145.45;100.00;57426.63;5092034;27;45398;-80
2022/08/09 03:09:08;;;;;;;;;7.67;5.00;;;;;-145.45;100.00;57426.63;5082856;27;45563;-81
2022/08/09 03:11:34;;;;;;;;;6.33;5.00;;;;;-145.45;100.00;57426.63;5092483;27;46225;-80
2022/08/09 03:14:01;;;;;;;;;9.67;7.00;;;;;-145.45;100.00;57426.63;5085047;27;45486;-80
2022/08/09 03:16:27;;;;;;;;;7.00;6.00;;;;;-145.45;100.00;57426.63;5079677;27;45205;-80
2022/08/09 03:18:54;;;;;;;;;9.00;8.00;;;;;-145.45;100.00;57426.63;5078829;27;45220;-80
2022/08/09 03:21:22;;;;;;;;;6.33;6.33;;;;;-145.45;100.00;57426.63;5079093;27;45237;-80
2022/08/09 03:23:48;;;;;;;;;5.00;4.67;;;;;-145.45;100.00;57426.63;5086761;27;45258;-81
2022/08/09 03:26:15;;;;;;;;;6.00;6.00;;;;;-145.45;100.00;57426.63;5078583;27;45368;-80
2022/08/09 03:28:42;;;;;;;;;7.00;7.00;;;;;-145.45;100.00;57426.63;5082728;27;45673;-81
2022/08/09 03:31:08;;;;;;;;;6.00;6.00;;;;;-145.45;100.00;57426.63;5078753;27;46027;-81
2022/08/09 03:33:36;;;;;;;;;7.00;7.00;;;;;-145.45;100.00;57426.63;5081209;27;45211;-81
2022/08/09 03:36:02;;;;;;;;;6.00;6.00;;;;;-145.45;100.00;57426.63;5078841;28;45273;-81
2022/08/09 03:38:27;;;;;;;;;10.00;7.67;;;;;-145.45;100.00;57426.63;5081013;27;45509;-81
2022/08/09 03:40:53;;;;;;;;;5.67;5.67;;;;;-145.45;100.00;57426.63;5092375;27;46105;-81
2022/08/09 03:43:18;;;;;;;;;5.00;5.00;;;;;-145.45;100.00;57426.63;5094051;27;45319;-82
2022/08/09 03:45:43;;;;;;;;;6.67;6.67;;;;;-145.45;100.00;57426.63;5083573;27;45233;-81
2022/08/09 03:48:09;;;;;;;;;6.00;5.00;;;;;-145.45;100.00;57426.63;5081319;27;45462;-81
2022/08/09 03:50:36;;;;;;;;;8.67;6.33;;;;;-145.45;100.00;57426.63;5077054;27;46752;-81
2022/08/09 03:53:04;;;;;;;;;7.67;6.33;;;;;-145.45;100.00;57426.63;5084008;27;45438;-81
2022/08/09 03:55:30;;;;;;;;;6.00;6.00;;;;;-145.45;100.00;57426.63;5081791;27;45430;-81
2022/08/09 03:57:56;;;;;;;;;11.00;7.00;;;;;-145.45;100.00;57426.63;5084634;27;45795;-81
2022/08/09 04:00:21;;;;;;;;;8.33;6.67;;;;;-145.45;100.00;57426.63;5081813;27;45327;-81
2022/08/09 04:02:48;;;;;;;;;6.33;5.00;;;;;-145.45;100.00;57426.63;5088145;27;45523;-81
2022/08/09 04:05:14;;;;;;;;;7.67;7.67;;;;;-145.45;100.00;57426.63;5081812;27;45296;-80
2022/08/09 04:07:39;;;;;;;;;5.33;4.00;;;;;-145.45;100.00;57426.63;5076888;27;45674;-81
2022/08/09 04:10:05;;;;;;;;;6.33;6.33;;;;;-145.45;100.00;57426.63;5075262;27;45394;-81
2022/08/09 04:12:41;;;;;;;;;7.00;6.00;;;;;-145.45;100.00;57426.63;5075988;27;45422;-81
2022/08/09 04:15:07;;;;;;;;;8.33;7.33;;;;;-145.45;100.00;57426.63;5098015;27;45242;-81
2022/08/09 04:17:33;;;;;;;;;13.33;8.00;;;;;-145.45;100.00;57426.63;5085249;27;45490;-81
2022/08/09 04:19:58;;;;;;;;;7.00;7.00;;;;;-145.45;100.00;57426.63;5081380;27;45285;-81
2022/08/09 04:22:23;;;;;;;;;7.33;7.00;;;;;-145.45;100.00;57426.63;5087246;27;45372;-81
2022/08/09 04:24:49;;;;;;;;;6.67;6.67;;;;;-145.45;100.00;57426.63;5084699;27;45279;-81
2022/08/09 04:27:14;;;;;;;;;6.67;5.67;;;;;-145.45;100.00;57426.63;5083981;27;45398;-80
2022/08/09 04:29:40;;;;;;;;;7.00;7.00;;;;;-145.45;100.00;57426.63;5081207;27;52603;-80
2022/08/09 04:32:05;;;;;;;;;9.67;6.67;;;;;-145.45;100.00;57426.63;5084223;27;45324;-80
2022/08/09 04:34:32;;;;;;;;;7.67;6.33;;;;;-145.45;100.00;57426.63;5084585;27;45452;-80
2022/08/09 04:36:59;;;;;;;;;6.67;6.67;;;;;-145.45;100.00;57426.63;5091123;27;45496;-80
2022/08/09 04:39:24;;;;;;;;;7.00;6.00;;;;;-145.45;100.00;57426.63;5075100;27;46804;-80
2022/08/09 04:41:50;;;;;;;;;8.33;8.33;;;;;-145.45;100.00;57426.63;5079833;27;45395;-80
2022/08/09 04:44:15;;;;;;;;;6.33;6.00;;;;;-145.45;100.00;57426.63;5090428;27;45422;-80
2022/08/09 04:46:41;;;;;;;;;8.00;8.00;;;;;-145.45;100.00;57426.63;5093551;27;45266;-80
2022/08/09 04:49:06;;;;;;;;;8.67;6.00;;;;;-145.45;100.00;57426.63;5080975;27;45313;-82
2022/08/09 04:51:32;;;;;;;;;7.67;6.67;;;;;-145.45;100.00;57426.63;5096130;27;45251;-80
2022/08/09 04:53:57;;;;;;;;;7.00;7.00;;;;;-145.45;100.00;57426.63;5080112;27;45344;-79
2022/08/09 04:56:23;;;;;;;;;7.33;7.33;;;;;-145.45;100.00;57426.63;5083869;27;45364;-82
2022/08/09 04:58:48;;;;;;;;;8.67;7.00;;;;;-145.45;100.00;57426.63;5076163;27;45420;-83
2022/08/09 05:01:13;;;;;;;;;5.00;5.00;;;;;-145.45;100.00;57426.63;5086151;27;45323;-82
2022/08/09 05:03:39;;;;;;;;;7.00;7.00;;;;;-145.45;100.00;57426.63;5089964;27;45621;-81
2022/08/09 05:06:05;;;;;;;;;5.67;5.67;;;;;-145.45;100.00;57426.63;5081095;27;45372;-82
2022/08/09 05:08:33;;;;;;;;;6.67;6.33;;;;;-145.45;100.00;57426.63;5086092;27;45585;-82
2022/08/09 05:10:59;;;;;;;;;6.67;6.67;;;;;-145.45;100.00;57426.63;5073804;27;45423;-82
2022/08/09 05:13:24;;;;;;;;;10.00;6.67;;;;;-145.45;100.00;57426.63;5094120;27;45450;-80
2022/08/09 05:15:49;;;;;;;;;7.33;5.67;;;;;-145.45;100.00;57426.63;5075662;27;45884;-82
2022/08/09 05:18:15;;;;;;;;;7.00;6.00;;;;;-145.45;100.00;57426.63;5077603;27;47835;-82
2022/08/09 05:20:40;;;;;;;;;8.00;7.67;;;;;-145.45;100.00;57426.63;5086093;27;45324;-83
2022/08/09 05:23:05;;;;;;;;;7.00;6.00;;;;;-145.45;100.00;57426.63;5092742;27;45292;-76
2022/08/09 05:25:31;;;;;;;;;8.00;8.00;;;;;-145.45;100.00;57426.63;5080438;27;45479;-76
2022/08/09 05:27:57;;;;;;;;;8.67;6.67;;;;;-145.45;100.00;57426.63;5083261;27;45328;-79
2022/08/09 05:30:22;;;;;;;;;7.67;6.00;;;;;-145.45;100.00;57426.63;5094738;27;45280;-79
2022/08/09 05:32:48;;;;;;;;;6.33;6.33;;;;;-145.45;100.00;57426.63;5072691;27;45505;-78
2022/08/09 05:35:13;;;;;;;;;7.00;7.00;;;;;-145.45;100.00;57426.63;5081406;27;45260;-78
2022/08/09 05:37:39;;;;;;;;;8.00;7.67;;;;;-145.45;100.00;57426.63;5082476;27;46252;-78
2022/08/09 05:40:06;;;;;;;;;8.00;8.00;;;;;-145.45;100.00;57426.63;5069650;28;46016;-79
2022/08/09 05:42:32;;;;;;;;;9.00;7.67;;;;;-145.45;100.00;57426.63;5082886;27;45469;-80
2022/08/09 05:44:58;;;;;;;;;6.67;6.00;;;;;-145.45;100.00;57426.63;5084219;27;45383;-79
2022/08/09 05:47:24;;;;;;;;;10.67;7.33;;;;;-145.45;100.00;57426.63;5074968;27;46226;-78
2022/08/09 05:49:51;;;;;;;;;6.67;6.67;;;;;-145.45;100.00;57426.63;5083065;27;45297;-80
2022/08/09 05:52:17;;;;;;;;;8.00;8.00;;;;;-145.45;100.00;57426.63;5085589;27;45457;-81
2022/08/09 05:54:42;;;;;;;;;8.33;6.33;;;;;-145.45;100.00;57426.63;5080152;27;45567;-81
2022/08/09 05:57:08;;;;;;;;;5.67;5.67;;;;;-145.45;100.00;57426.63;5074758;27;45193;-80
2022/08/09 05:59:33;;;;;;;;;9.00;8.00;;;;;-145.45;100.00;57426.63;5081437;27;45292;-77
2022/08/09 06:01:58;;;;;;;;;7.00;7.00;;;;;-145.45;100.00;57426.63;5083565;27;45269;-77
2022/08/09 06:04:24;;;;;;;;;7.00;7.00;;;;;-145.45;100.00;57426.63;5082984;27;45270;-79
2022/08/09 06:06:49;;;;;;;;;10.33;8.33;;;;;-145.45;100.00;57426.63;5074744;27;47031;-80
2022/08/09 06:09:14;;;;;;;;;9.67;9.67;;;;;-145.45;100.00;57426.63;5084643;27;45840;-79
2022/08/09 06:11:40;;;;;;;;;7.67;7.33;;;;;-145.45;100.00;57426.63;5076409;27;45448;-79
2022/08/09 06:14:05;;;;;;;;;9.00;9.00;;;;;-145.45;100.00;57426.63;5095496;27;45576;-79
2022/08/09 06:16:30;;;;;;;;;8.67;7.67;;;;;-145.45;100.00;57426.63;5098112;27;45422;-79
2022/08/09 06:18:56;;;;;;;;;7.67;7.67;;;;;-145.45;100.00;57426.63;5089561;27;45595;-78
2022/08/09 06:21:21;;;;;;;;;6.67;6.67;;;;;-145.45;100.00;57426.63;5079848;27;45391;-79
2022/08/09 06:23:47;;;;;;;;;7.67;7.67;;;;;-145.45;100.00;57426.63;5089968;27;45484;-82
2022/08/09 06:26:16;;;;;;;;;9.67;8.67;;;;;-145.45;100.00;57426.63;5078902;27;45082;-81
2022/08/09 06:28:41;;;;;;;;;9.33;9.33;;;;;-145.45;100.00;57426.63;5081908;27;45301;-81
2022/08/09 06:31:07;;;;;;;;;8.00;8.00;;;;;-145.45;100.00;57426.63;5086104;27;45252;-82
2022/08/09 06:33:32;;;;;;;;;8.67;8.67;;;;;-145.45;100.00;57426.63;5084188;27;45546;-82
2022/08/09 06:35:57;;;;;;;;;8.00;8.00;;;;;-145.45;100.00;57426.63;5082088;27;45540;-84
2022/08/09 06:38:23;;;;;;;;;10.00;8.00;;;;;-145.45;100.00;57426.63;5084479;27;46687;-85
2022/08/09 06:40:48;;;;;;;;;9.00;9.00;;;;;-145.45;100.00;57426.63;5080326;27;45256;-86
2022/08/09 06:43:13;;;;;;;;;9.00;9.00;;;;;-145.45;100.00;57426.63;5094422;27;45399;-85
2022/08/09 06:45:39;;;;;;;;;11.33;9.00;;;;;-145.45;100.00;57426.63;5072592;27;46572;-84
2022/08/09 06:48:04;;;;;;;;;9.00;7.67;;;;;-145.45;100.00;57426.63;5113928;27;44653;-85
2022/08/09 06:50:31;;;;;;;;;7.67;7.00;;;;;-145.45;100.00;57426.63;5108661;27;44611;-83
2022/08/09 06:52:57;;;;;;;;;8.33;7.00;;;;;-145.45;100.00;57426.63;5101345;27;44839;-82
2022/08/09 06:55:27;;;;;;;;;8.67;8.67;;;;;-145.45;100.00;57426.63;5078532;27;48098;-82
2022/08/09 06:57:52;;;;;;;;;7.00;7.00;;;;;-145.45;100.00;57426.63;5094522;27;45469;-82
2022/08/09 07:00:17;;;;;;;;;8.33;7.00;;;;;-145.45;100.00;57426.63;5105006;27;44766;-79
2022/08/09 07:02:43;;;;;;;;;7.33;7.33;;;;;-145.45;100.00;57426.63;5102215;27;45294;-78
2022/08/09 07:05:08;;;;;;;;;10.00;9.33;;;;;-145.45;100.00;57426.63;5102347;27;44905;-81
2022/08/09 07:07:34;;;;;;;;;8.67;7.67;;;;;-145.45;100.00;57426.63;5099314;27;44811;-82
2022/08/09 07:09:59;;;;;;;;;7.33;6.33;;;;;-145.45;100.00;57426.63;5083897;27;45300;-80
2022/08/09 07:12:24;;;;;;;;;10.33;8.33;;;;;-145.45;100.00;57426.63;5090062;27;45274;-80
2022/08/09 07:14:50;;;;;;;;;8.33;7.33;;;;;-145.45;100.00;57426.63;5078165;27;47937;-83
2022/08/09 07:17:15;;;;;;;;;7.67;7.67;;;;;-145.45;100.00;57426.63;5080559;27;45433;-82
2022/08/09 07:19:41;;;;;;;;;7.67;7.67;;;;;-145.45;100.00;57426.63;5083919;27;45323;-81
2022/08/09 07:22:06;;;;;;;;;8.67;7.00;;;;;-145.45;100.00;57426.63;5082259;27;45475;-83
2022/08/09 07:24:32;;;;;;;;;7.00;7.00;;;;;-145.45;100.00;57426.63;5081540;27;45002;-81
2022/08/09 07:26:59;;;;;;;;;8.67;7.33;;;;;-145.45;100.00;57426.63;5079913;27;45394;-81
2022/08/09 07:29:26;;;;;;;;;7.67;6.33;;;;;-145.45;100.00;57426.63;5094561;27;45437;-80
2022/08/09 07:31:51;;;;;;;;;7.33;5.33;;;;;-145.45;100.00;57426.63;5082670;27;45438;-83
2022/08/09 07:34:17;;;;;;;;;8.33;8.33;;;;;-145.45;100.00;57426.63;5090220;27;46174;-84
2022/08/09 07:36:42;;;;;;;;;6.00;5.00;;;;;-145.45;100.00;57426.63;5082457;27;45430;-83
2022/08/09 07:39:08;;;;;;;;;7.67;7.67;;;;;-145.45;100.00;57426.63;5089158;27;45423;-83
2022/08/09 07:41:33;;;;;;;;;8.67;8.00;;;;;-145.45;100.00;57426.63;5082209;27;45483;-84
2022/08/09 07:43:59;;;;;;;;;7.00;7.00;;;;;-145.45;100.00;57426.63;5087776;27;45936;-84
2022/08/09 07:46:25;;;;;;;;;9.33;7.00;;;;;-145.45;100.00;57426.63;5083600;27;45232;-84
2022/08/09 07:48:51;;;;;;;;;6.67;6.67;;;;;-145.45;100.00;57426.63;5092538;27;45236;-83
2022/08/09 07:51:16;;;;;;;;;6.67;6.33;;;;;-145.45;100.00;57426.63;5081617;27;45221;-84
2022/08/09 07:53:41;;;;;;;;;6.00;6.00;;;;;-145.45;100.00;57426.63;5091408;27;45323;-82
2022/08/09 07:56:07;;;;;;;;;9.00;8.00;;;;;-145.45;100.00;57426.63;5082233;27;45316;-82
2022/08/09 07:58:33;;;;;;;;;8.67;7.33;;;;;-145.45;100.00;57426.63;5087905;27;45321;-83
2022/08/09 08:00:58;;;;;;;;;8.00;6.67;;;;;-145.45;100.00;57426.63;5081273;27;45355;-82
2022/08/09 08:03:23;;;;;;;;;5.67;5.67;;;;;-145.45;100.00;57426.63;5079680;27;45598;-81
2022/08/09 08:05:48;;;;;;;;;6.00;6.00;;;;;-145.45;100.00;57426.63;5081274;27;46439;-82
2022/08/09 08:08:14;;;;;;;;;6.75;5.75;;;;;-145.45;100.00;57426.63;5068498;27;45514;-82
2022/08/09 08:10:39;;;;;;;;;6.00;6.00;;;;;-145.45;100.00;57426.63;5083074;27;45427;-81
2022/08/09 08:13:04;;;;;;;;;7.67;7.67;;;;;-145.45;100.00;57426.63;5087984;27;46007;-82
2022/08/09 08:15:30;;;;;;;;;10.25;7.00;;;;;-145.45;100.00;57426.63;5064973;27;45281;-82
2022/08/09 08:17:55;;;;;;;;;6.50;4.25;;;;;-145.45;100.00;57426.63;5068027;27;45310;-82
2022/08/09 08:20:28;;;;;;;;;6.25;5.25;;;;;-145.45;100.00;57426.63;5089461;27;45299;-83
2022/08/09 08:22:54;;;;;;;;;9.75;7.00;;;;;-145.45;100.00;57426.63;5092179;27;45465;-81
2022/08/09 08:25:19;;;;;;;;;6.00;6.00;;;;;-145.45;100.00;57426.63;5082111;27;45591;-84
2022/08/09 08:27:45;;;;;;;;;6.25;5.75;;;;;-145.45;100.00;57426.63;5087527;27;45739;-85
2022/08/09 08:30:12;;;;;;;;;6.50;6.50;;;;;-145.45;100.00;57426.63;5089873;27;45414;-83
2022/08/09 08:32:38;;;;;;;;;8.00;5.25;;;;;-145.45;100.00;57426.63;5084633;27;46350;-83
2022/08/09 08:35:04;;;;;;;;;7.00;7.00;;;;;-145.45;100.00;57426.63;5085835;27;45364;-81
2022/08/09 08:37:29;;;;;;;;;6.75;6.25;;;;;-145.45;100.00;57426.63;5085915;27;45514;-83
2022/08/09 08:39:55;;;;;;;;;11.50;7.00;;;;;-145.45;100.00;57426.63;5089399;27;45260;-83
2022/08/09 08:42:21;;;;;;;;;7.00;6.75;;;;;-145.45;100.00;57426.63;5083357;27;45257;-83
2022/08/09 08:44:52;;;;;;;;;4.25;4.25;;;;;-145.45;100.00;57426.63;5090125;27;45663;-84
2022/08/09 08:47:18;;;;;;;;;4.75;4.75;;;;;-145.45;100.00;57426.63;5090955;27;45244;-83
2022/08/09 08:49:43;;;;;;;;;5.75;5.25;;;;;-145.45;100.00;57426.63;5086908;27;45242;-82
2022/08/09 08:52:09;;;;;;;;;4.50;3.00;;;;;-145.45;100.00;57426.63;5065562;27;46434;-83
2022/08/09 08:54:35;;;;;;;;;8.75;7.50;;;;;-145.45;100.00;57426.63;5087916;27;45394;-83
2022/08/09 08:57:02;;;;;;;;;8.75;6.50;;;;;-145.45;100.00;57426.63;5078130;27;45268;-82
2022/08/09 08:59:28;;;;;;;;;6.75;6.75;;;;;-145.45;100.00;57426.63;5084248;27;46512;-75
2022/08/09 09:01:54;;;;;;;;;5.00;4.50;;;;;-145.45;100.00;57426.63;5062997;27;47234;-73
2022/08/09 09:04:25;;;;;;;;;6.60;5.40;;;;;-145.45;100.00;57426.63;5087395;27;45426;-76
2022/08/09 09:06:53;;;;;;;;;6.00;5.25;;;;;-145.45;100.00;57426.63;5081216;27;45459;-78
2022/08/09 09:09:20;;;;;;;;;6.00;5.25;;;;;-145.45;100.00;57426.63;5087682;27;45285;-78
2022/08/09 09:11:46;;;;;;;;;8.25;6.25;;;;;-145.45;100.00;57426.63;5092588;27;45422;-78
2022/08/09 09:14:18;;;;;;;;;6.00;4.50;;;;;-145.45;100.00;57426.63;5086737;27;45283;-78
2022/08/09 09:16:44;;;;;;;;;7.50;6.25;;;;;-145.45;100.00;57426.63;5082481;27;45437;-77
2022/08/09 09:19:10;;;;;;;;;6.50;5.00;;;;;-145.45;100.00;57426.63;5085275;27;45392;-75
2022/08/09 09:21:54;;;;;;;;;6.25;6.25;;;;;-145.45;100.00;57426.63;5080916;27;47269;-77
2022/08/09 09:24:27;;;;;;;;;6.40;6.00;;;;;-145.45;100.00;57426.63;5083912;27;45397;-78
2022/08/09 09:26:54;;;;;;;;;5.75;5.75;;;;;-145.45;100.00;57426.63;5082939;27;45372;-77
2022/08/09 09:29:37;;;;;;;;;6.40;5.00;;;;;-145.45;100.00;57426.63;5080011;27;46299;-78
2022/08/09 09:32:03;;;;;;;;;8.80;6.20;;;;;-145.45;100.00;57426.63;5072256;27;47320;-77
2022/08/09 09:34:29;;;;;;;;;6.20;5.40;;;;;-145.45;100.00;57426.63;5081845;27;45490;-78
2022/08/09 09:36:56;;;;;;;;;7.00;5.50;;;;;-145.45;100.00;57426.63;5064674;27;45494;-78
2022/08/09 09:39:23;;;;;;;;;8.00;8.00;;;;;-145.45;100.00;57426.63;5088939;27;45466;-78
2022/08/09 09:41:49;;;;;;;;;6.40;4.60;;;;;-145.45;100.00;57426.63;5068066;27;45584;-77
2022/08/09 09:44:28;;;;;;;;;5.80;5.80;;;;;-145.45;100.00;57426.63;5085478;27;45197;-77
2022/08/09 09:47:15;;;;;;;;;6.80;5.20;;;;;-145.45;100.00;57426.63;5096452;27;45441;-77
2022/08/09 09:49:49;;;;;;;;;6.20;6.20;;;;;-145.45;100.00;57426.63;5096857;27;45331;-78
2022/08/09 09:52:15;;;;;;;;;5.00;5.00;;;;;-145.45;100.00;57426.63;5088598;27;46291;-78
2022/08/09 09:54:42;;;;;;;;;7.75;6.50;;;;;-145.45;100.00;57426.63;5086162;27;45408;-78
2022/08/09 09:57:23;;;;;;;;;7.00;7.00;;;;;-145.45;100.00;57426.63;5084845;27;45660;-79
2022/08/09 09:59:53;;;;;;;;;5.00;5.00;;;;;-145.45;100.00;57426.63;5080076;27;45557;-78
2022/08/09 10:02:20;;;;;;;;;5.20;3.40;;;;;-145.45;100.00;57426.63;5079883;27;46909;-78
2022/08/09 10:05:03;;;;;;;;;5.00;5.00;;;;;-145.45;100.00;57426.63;5080497;27;45296;-78
2022/08/09 10:07:28;;;;;;;;;5.60;4.80;;;;;-145.45;100.00;57426.63;5085665;27;45282;-79
2022/08/09 10:09:56;;;;;;;;;5.50;5.50;;;;;-145.45;100.00;57426.63;5097723;27;45324;-78
2022/08/09 10:12:24;;;;;;;;;6.80;6.00;;;;;-145.45;100.00;57426.63;5080379;27;45254;-80
2022/08/09 10:14:49;;;;;;;;;4.60;4.60;;;;;-145.45;100.00;57426.63;5080229;27;45289;-78
2022/08/09 10:17:18;;;;;;;;;6.50;6.50;;;;;-145.45;100.00;57426.63;5088515;27;45406;-78
2022/08/09 10:19:44;;;;;;;;;6.00;6.00;;;;;-145.45;100.00;57426.63;5092797;27;45473;-78
2022/08/09 10:22:09;;;;;;;;;6.50;5.00;;;;;-145.45;100.00;57426.63;5078326;27;46107;-78
2022/08/09 10:24:35;;;;;;;;;6.00;5.00;;;;;-145.45;100.00;57426.63;5079451;27;45439;-78
2022/08/09 10:27:01;;;;;;;;;4.25;4.25;;;;;-145.45;100.00;57426.63;5082192;27;45399;-80
2022/08/09 10:29:28;;;;;;;;;6.00;6.00;;;;;-145.45;100.00;57426.63;5079476;27;45735;-79
2022/08/09 10:31:54;;;;;;;;;7.20;5.00;;;;;-145.45;100.00;57426.63;5081897;27;45892;-78
2022/08/09 10:34:20;;;;;;;;;5.80;5.80;;;;;-145.45;100.00;57426.63;5080818;27;45407;-79
2022/08/09 10:36:48;;;;;;;;;6.25;6.25;;;;;-145.45;100.00;57426.63;5079908;27;45432;-79
2022/08/09 10:39:17;;;;;;;;;7.20;7.20;;;;;-145.45;100.00;57426.63;5083782;27;45521;-79
2022/08/09 10:41:44;;;;;;;;;6.80;6.40;;;;;-145.45;100.00;57426.63;5079483;27;45443;-79
2022/08/09 10:44:10;;;;;;;;;7.00;7.00;;;;;-145.45;100.00;57426.63;5084826;27;45435;-79
2022/08/09 10:46:59;;;;;;;;;7.00;6.00;;;;;-145.45;100.00;57426.63;5079780;27;45469;-79
2022/08/09 10:49:46;;;;;;;;;6.20;6.00;;;;;-145.45;100.00;57426.63;5084258;27;45308;-79
2022/08/09 10:52:42;;;;;;;;;6.60;6.60;;;;;-145.45;100.00;57426.63;5080432;27;46180;-78
2022/08/09 10:55:27;;;;;;;;;5.40;5.40;;;;;-145.45;100.00;57426.63;5061657;28;45433;-79
2022/08/09 10:57:55;;;;;;;;;6.00;5.00;;;;;-145.45;100.00;57426.63;5085865;27;45414;-81
2022/08/09 11:00:42;;;;;;;;;7.20;6.20;;;;;-145.45;100.00;57426.63;5079061;27;45350;-79
2022/08/09 11:03:23;;;;;;;;;6.40;6.00;;;;;-145.45;100.00;57426.63;5076503;27;47243;-79
2022/08/09 11:06:14;;;;;;;;;8.80;8.60;;;;;-145.45;100.00;57426.63;5082587;27;45459;-78
2022/08/09 11:08:42;;;;;;;;;6.20;6.20;;;;;-145.45;100.00;57426.63;5077152;27;45587;-80
2022/08/09 11:11:08;;;;;;;;;5.00;5.00;;;;;-145.45;100.00;57426.63;5082361;27;45459;-79
2022/08/09 11:13:33;;;;;;;;;7.25;6.00;;;;;-145.45;100.00;57426.63;5087963;27;45725;-77
2022/08/09 11:16:32;;;;;;;;;7.50;6.50;;;;;-145.45;100.00;57426.63;5082569;27;45314;-79